sensor_id;sensor_type;location;lat;lon;timestamp;temperature;humidity
5027;DHT22;2532;52.480;13.354;2023-09-19T04:01:10;19.50;99.90
5027;DHT22;2532;52.480;13.354;2023-09-19T04:03:38;19.50;99.90
5027;DHT22;2532;52.480;13.354;2023-09-19T04:06:12;19.50;99.90
5027;DHT22;2532;52.480;13.354;2023-09-19T04:08:39;19.50;99.90
5027;DHT22;2532;52.480;13.354;2023-09-19T04:11:07;19.40;99.90
5027;DHT22;2532;52.480;13.354;2023-09-19T04:13:33;19.40;99.90
5027;DHT22;2532;52.480;13.354;2023-09-19T04:16:00;19.40;99.90
5027;DHT22;2532;52.480;13.354;2023-09-19T04:18:30;19.40;99.90
5027;DHT22;2532;52.480;13.354;2023-09-19T04:20:59;19.40;99.90
5027;DHT22;2532;52.480;13.354;2023-09-19T04:23:28;19.40;99.90
5027;DHT22;2532;52.480;13.354;2023-09-19T04:25:55;19.40;99.90
5027;DHT22;2532;52.480;13.354;2023-09-19T04:28:22;19.40;99.90
5027;DHT22;2532;52.480;13.354;2023-09-19T04:30:50;19.40;99.90
5027;DHT22;2532;52.480;13.354;2023-09-19T04:33:17;19.40;99.90
5027;DHT22;2532;52.480;13.354;2023-09-19T04:35:45;19.40;99.90
5027;DHT22;2532;52.480;13.354;2023-09-19T04:38:12;19.40;99.90
5027;DHT22;2532;52.480;13.354;2023-09-19T04:40:40;19.40;99.90
5027;DHT22;2532;52.480;13.354;2023-09-19T04:43:07;19.40;99.90
5027;DHT22;2532;52.480;13.354;2023-09-19T04:45:34;19.40;99.90
5027;DHT22;2532;52.480;13.354;2023-09-19T04:48:01;19.40;99.90
5027;DHT22;2532;52.480;13.354;2023-09-19T04:50:28;19.30;99.90
5027;DHT22;2532;52.480;13.354;2023-09-19T04:52:57;19.30;99.90
5027;DHT22;2532;52.480;13.354;2023-09-19T04:55:24;19.30;99.90
5027;DHT22;2532;52.480;13.354;2023-09-19T04:57:51;19.30;99.90
5027;DHT22;2532;52.480;13.354;2023-09-19T05:00:20;19.20;99.90
5027;DHT22;2532;52.480;13.354;2023-09-19T05:02:49;19.30;99.90
5027;DHT22;2532;52.480;13.354;2023-09-19T05:05:17;19.20;99.80
5027;DHT22;2532;52.480;13.354;2023-09-19T05:07:45;19.20;99.80
5027;DHT22;2532;52.480;13.354;2023-09-19T05:10:13;19.20;99.70
5027;DHT22;2532;52.480;13.354;2023-09-19T05:12:41;19.20;99.80
5027;DHT22;2532;52.480;13.354;2023-09-19T05:15:10;19.20;99.70
5027;DHT22;2532;52.480;13.354;2023-09-19T05:17:38;19.20;99.80
5027;DHT22;2532;52.480;13.354;2023-09-19T05:20:06;19.10;99.70
5027;DHT22;2532;52.480;13.354;2023-09-19T05:22:38;19.10;99.70
5027;DHT22;2532;52.480;13.354;2023-09-19T05:25:07;19.10;99.70
5027;DHT22;2532;52.480;13.354;2023-09-19T05:27:35;19.10;99.90
5027;DHT22;2532;52.480;13.354;2023-09-19T05:30:02;19.10;99.70
5027;DHT22;2532;52.480;13.354;2023-09-19T05:32:30;19.10;99.70
5027;DHT22;2532;52.480;13.354;2023-09-19T05:34:57;19.10;99.60
5027;DHT22;2532;52.480;13.354;2023-09-19T05:37:24;19.10;99.70
5027;DHT22;2532;52.480;13.354;2023-09-19T05:39:51;19.10;99.60
5027;DHT22;2532;52.480;13.354;2023-09-19T05:42:19;19.10;99.60
5027;DHT22;2532;52.480;13.354;2023-09-19T05:44:48;19.10;99.50
5027;DHT22;2532;52.480;13.354;2023-09-19T05:47:14;19.10;99.60
5027;DHT22;2532;52.480;13.354;2023-09-19T05:49:41;19.10;99.50
5027;DHT22;2532;52.480;13.354;2023-09-19T05:52:09;19.10;99.60
5027;DHT22;2532;52.480;13.354;2023-09-19T05:54:36;19.10;99.70
5027;DHT22;2532;52.480;13.354;2023-09-19T05:57:03;19.10;99.60
5027;DHT22;2532;52.480;13.354;2023-09-19T05:59:30;19.10;99.50
5027;DHT22;2532;52.480;13.354;2023-09-19T06:02:00;19.20;99.60
5027;DHT22;2532;52.480;13.354;2023-09-19T06:04:27;19.20;99.60
5027;DHT22;2532;52.480;13.354;2023-09-19T06:06:56;19.20;99.70
5027;DHT22;2532;52.480;13.354;2023-09-19T06:09:23;19.20;99.40
5027;DHT22;2532;52.480;13.354;2023-09-19T06:11:53;19.20;99.40
5027;DHT22;2532;52.480;13.354;2023-09-19T06:14:21;19.20;99.20
5027;DHT22;2532;52.480;13.354;2023-09-19T06:16:50;19.20;99.30
5027;DHT22;2532;52.480;13.354;2023-09-19T06:19:21;19.20;99.30
5027;DHT22;2532;52.480;13.354;2023-09-19T06:21:52;19.20;99.20
5027;DHT22;2532;52.480;13.354;2023-09-19T06:24:20;19.20;99.10
5027;DHT22;2532;52.480;13.354;2023-09-19T06:26:47;19.20;99.20
5027;DHT22;2532;52.480;13.354;2023-09-19T06:29:15;19.20;99.20
5027;DHT22;2532;52.480;13.354;2023-09-19T06:31:42;19.20;99.10
5027;DHT22;2532;52.480;13.354;2023-09-19T06:34:10;19.20;98.90
5027;DHT22;2532;52.480;13.354;2023-09-19T06:36:38;19.30;98.90
5027;DHT22;2532;52.480;13.354;2023-09-19T06:39:06;19.30;98.90
5027;DHT22;2532;52.480;13.354;2023-09-19T06:41:36;19.30;98.80
5027;DHT22;2532;52.480;13.354;2023-09-19T06:44:05;19.40;98.80
5027;DHT22;2532;52.480;13.354;2023-09-19T06:46:32;19.40;98.70
5027;DHT22;2532;52.480;13.354;2023-09-19T06:49:00;19.50;98.80
5027;DHT22;2532;52.480;13.354;2023-09-19T06:51:31;19.50;98.70
5027;DHT22;2532;52.480;13.354;2023-09-19T06:54:01;19.50;98.40
5027;DHT22;2532;52.480;13.354;2023-09-19T06:56:30;19.60;98.40
5027;DHT22;2532;52.480;13.354;2023-09-19T06:58:58;19.60;98.20
5027;DHT22;2532;52.480;13.354;2023-09-19T07:01:25;19.70;98.10
5027;DHT22;2532;52.480;13.354;2023-09-19T07:03:52;19.70;98.00
5027;DHT22;2532;52.480;13.354;2023-09-19T07:06:23;19.70;97.90
5027;DHT22;2532;52.480;13.354;2023-09-19T07:08:51;19.80;98.10
5027;DHT22;2532;52.480;13.354;2023-09-19T07:11:20;19.80;97.80
5027;DHT22;2532;52.480;13.354;2023-09-19T07:13:47;19.90;97.70
5027;DHT22;2532;52.480;13.354;2023-09-19T07:16:13;20.00;97.40
5027;DHT22;2532;52.480;13.354;2023-09-19T07:18:52;20.10;97.40
5027;DHT22;2532;52.480;13.354;2023-09-19T07:21:20;20.20;97.30
5027;DHT22;2532;52.480;13.354;2023-09-19T07:23:50;20.20;97.20
5027;DHT22;2532;52.480;13.354;2023-09-19T07:26:20;20.20;96.50
5027;DHT22;2532;52.480;13.354;2023-09-19T07:28:47;20.20;96.50
5027;DHT22;2532;52.480;13.354;2023-09-19T07:31:13;20.20;96.70
5027;DHT22;2532;52.480;13.354;2023-09-19T07:33:40;20.20;96.50
5027;DHT22;2532;52.480;13.354;2023-09-19T07:36:10;20.20;96.50
5027;DHT22;2532;52.480;13.354;2023-09-19T07:38:39;20.20;96.10
5027;DHT22;2532;52.480;13.354;2023-09-19T07:41:07;20.20;96.30
5027;DHT22;2532;52.480;13.354;2023-09-19T07:43:36;20.20;96.20
5027;DHT22;2532;52.480;13.354;2023-09-19T07:46:05;20.20;95.80
5027;DHT22;2532;52.480;13.354;2023-09-19T07:48:34;20.20;95.60
5027;DHT22;2532;52.480;13.354;2023-09-19T07:51:03;20.20;95.60
5027;DHT22;2532;52.480;13.354;2023-09-19T07:53:30;20.30;95.60
5027;DHT22;2532;52.480;13.354;2023-09-19T07:56:04;20.20;95.50
5027;DHT22;2532;52.480;13.354;2023-09-19T07:58:32;20.20;95.50
5027;DHT22;2532;52.480;13.354;2023-09-19T08:01:04;20.30;95.40
5027;DHT22;2532;52.480;13.354;2023-09-19T08:03:32;20.30;95.10
5027;DHT22;2532;52.480;13.354;2023-09-19T08:06:00;20.30;95.10
5027;DHT22;2532;52.480;13.354;2023-09-19T08:08:27;20.30;95.00
5027;DHT22;2532;52.480;13.354;2023-09-19T08:10:54;20.30;94.60
5027;DHT22;2532;52.480;13.354;2023-09-19T08:13:22;20.20;94.10
5027;DHT22;2532;52.480;13.354;2023-09-19T08:15:50;20.20;94.30
5027;DHT22;2532;52.480;13.354;2023-09-19T08:18:20;20.20;94.10
5027;DHT22;2532;52.480;13.354;2023-09-19T08:20:50;20.20;93.70
5027;DHT22;2532;52.480;13.354;2023-09-19T08:23:17;20.20;93.90
5027;DHT22;2532;52.480;13.354;2023-09-19T08:25:45;20.10;93.70
5027;DHT22;2532;52.480;13.354;2023-09-19T08:28:12;20.10;93.80
5027;DHT22;2532;52.480;13.354;2023-09-19T08:30:44;20.00;93.80
5027;DHT22;2532;52.480;13.354;2023-09-19T08:33:11;20.00;94.00
5027;DHT22;2532;52.480;13.354;2023-09-19T08:35:42;20.00;94.00
5027;DHT22;2532;52.480;13.354;2023-09-19T08:38:10;20.00;94.00
5027;DHT22;2532;52.480;13.354;2023-09-19T08:40:39;20.00;94.10
5027;DHT22;2532;52.480;13.354;2023-09-19T08:43:07;20.10;93.80
5027;DHT22;2532;52.480;13.354;2023-09-19T08:45:35;20.10;93.70
5027;DHT22;2532;52.480;13.354;2023-09-19T08:48:26;20.10;93.40
5027;DHT22;2532;52.480;13.354;2023-09-19T08:51:01;20.00;93.20
5027;DHT22;2532;52.480;13.354;2023-09-19T08:53:34;20.00;93.50
5027;DHT22;2532;52.480;13.354;2023-09-19T08:56:04;20.00;93.40
5027;DHT22;2532;52.480;13.354;2023-09-19T08:58:40;20.00;93.20
5027;DHT22;2532;52.480;13.354;2023-09-19T09:01:10;20.00;93.30
5027;DHT22;2532;52.480;13.354;2023-09-19T09:03:40;20.10;93.30
5027;DHT22;2532;52.480;13.354;2023-09-19T09:06:14;20.10;93.30
5027;DHT22;2532;52.480;13.354;2023-09-19T09:08:42;20.20;93.20
5027;DHT22;2532;52.480;13.354;2023-09-19T09:11:09;20.20;92.80
5027;DHT22;2532;52.480;13.354;2023-09-19T09:13:37;20.30;92.80
5027;DHT22;2532;52.480;13.354;2023-09-19T09:16:04;20.30;92.80
5027;DHT22;2532;52.480;13.354;2023-09-19T09:18:31;20.30;92.60
5027;DHT22;2532;52.480;13.354;2023-09-19T09:20:58;20.40;92.60
5027;DHT22;2532;52.480;13.354;2023-09-19T09:23:27;20.40;92.10
5027;DHT22;2532;52.480;13.354;2023-09-19T09:25:56;20.50;92.00
5027;DHT22;2532;52.480;13.354;2023-09-19T09:28:26;20.60;91.80
5027;DHT22;2532;52.480;13.354;2023-09-19T09:30:54;20.60;91.60
5027;DHT22;2532;52.480;13.354;2023-09-19T09:33:22;20.60;91.20
5027;DHT22;2532;52.480;13.354;2023-09-19T09:35:50;20.60;91.20
5027;DHT22;2532;52.480;13.354;2023-09-19T09:38:19;20.70;91.10
5027;DHT22;2532;52.480;13.354;2023-09-19T09:40:49;20.70;90.80
5027;DHT22;2532;52.480;13.354;2023-09-19T09:43:29;20.70;90.40
5027;DHT22;2532;52.480;13.354;2023-09-19T09:46:11;20.70;90.10
5027;DHT22;2532;52.480;13.354;2023-09-19T09:49:10;20.70;90.40
5027;DHT22;2532;52.480;13.354;2023-09-19T09:51:59;20.70;90.30
5027;DHT22;2532;52.480;13.354;2023-09-19T09:54:31;20.70;90.10
5027;DHT22;2532;52.480;13.354;2023-09-19T09:57:05;20.70;90.00
5027;DHT22;2532;52.480;13.354;2023-09-19T09:59:47;20.80;89.10
5027;DHT22;2532;52.480;13.354;2023-09-19T10:02:15;20.90;88.50
5027;DHT22;2532;52.480;13.354;2023-09-19T10:04:50;20.90;86.60
5027;DHT22;2532;52.480;13.354;2023-09-19T10:07:40;20.90;86.50
5027;DHT22;2532;52.480;13.354;2023-09-19T10:10:14;21.00;86.00
5027;DHT22;2532;52.480;13.354;2023-09-19T10:12:48;21.00;86.40
5027;DHT22;2532;52.480;13.354;2023-09-19T10:15:17;21.10;86.70
5027;DHT22;2532;52.480;13.354;2023-09-19T10:17:47;21.20;86.40
5027;DHT22;2532;52.480;13.354;2023-09-19T10:20:16;21.20;85.70
5027;DHT22;2532;52.480;13.354;2023-09-19T10:23:06;21.30;85.30
5027;DHT22;2532;52.480;13.354;2023-09-19T10:25:40;21.40;83.90
5027;DHT22;2532;52.480;13.354;2023-09-19T10:28:11;21.40;84.30
5027;DHT22;2532;52.480;13.354;2023-09-19T10:30:41;21.40;83.40
5027;DHT22;2532;52.480;13.354;2023-09-19T10:33:11;21.40;82.60
5027;DHT22;2532;52.480;13.354;2023-09-19T10:35:39;21.40;82.20
5027;DHT22;2532;52.480;13.354;2023-09-19T10:38:07;21.40;82.80
5027;DHT22;2532;52.480;13.354;2023-09-19T10:40:37;21.40;83.50
5027;DHT22;2532;52.480;13.354;2023-09-19T10:43:12;21.30;83.20
5027;DHT22;2532;52.480;13.354;2023-09-19T10:45:41;21.20;83.10
5027;DHT22;2532;52.480;13.354;2023-09-19T10:48:10;21.20;81.00
5027;DHT22;2532;52.480;13.354;2023-09-19T10:50:43;21.30;79.80
5027;DHT22;2532;52.480;13.354;2023-09-19T10:53:12;21.30;80.40
5027;DHT22;2532;52.480;13.354;2023-09-19T10:55:41;21.40;79.20
5027;DHT22;2532;52.480;13.354;2023-09-19T10:58:26;21.40;78.40
5027;DHT22;2532;52.480;13.354;2023-09-19T11:00:56;21.40;77.50
5027;DHT22;2532;52.480;13.354;2023-09-19T11:03:27;21.40;77.70
5027;DHT22;2532;52.480;13.354;2023-09-19T11:06:07;21.40;77.10
5027;DHT22;2532;52.480;13.354;2023-09-19T11:08:53;21.40;76.80
5027;DHT22;2532;52.480;13.354;2023-09-19T11:11:42;21.40;76.90
5027;DHT22;2532;52.480;13.354;2023-09-19T11:20:25;21.50;75.90
5027;DHT22;2532;52.480;13.354;2023-09-19T11:23:20;21.50;75.20
5027;DHT22;2532;52.480;13.354;2023-09-19T11:25:56;21.60;75.30
5027;DHT22;2532;52.480;13.354;2023-09-19T11:28:35;21.60;76.00
5027;DHT22;2532;52.480;13.354;2023-09-19T11:31:42;21.70;75.40
5027;DHT22;2532;52.480;13.354;2023-09-19T11:34:47;21.80;76.10
5027;DHT22;2532;52.480;13.354;2023-09-19T11:40:45;22.00;75.00
5027;DHT22;2532;52.480;13.354;2023-09-19T11:43:32;22.00;75.90
5027;DHT22;2532;52.480;13.354;2023-09-19T11:46:10;22.10;75.40
5027;DHT22;2532;52.480;13.354;2023-09-19T11:48:39;22.10;75.60
5027;DHT22;2532;52.480;13.354;2023-09-19T11:51:18;22.10;75.10
5027;DHT22;2532;52.480;13.354;2023-09-19T11:53:54;22.20;73.80
5027;DHT22;2532;52.480;13.354;2023-09-19T11:56:22;22.20;73.20
5027;DHT22;2532;52.480;13.354;2023-09-19T11:58:50;22.30;73.30
5027;DHT22;2532;52.480;13.354;2023-09-19T12:01:22;22.30;72.70
5027;DHT22;2532;52.480;13.354;2023-09-19T12:03:55;22.40;72.20
5027;DHT22;2532;52.480;13.354;2023-09-19T12:06:23;22.40;72.00
5027;DHT22;2532;52.480;13.354;2023-09-19T12:08:51;22.40;72.50
5027;DHT22;2532;52.480;13.354;2023-09-19T12:11:20;22.30;72.50
5027;DHT22;2532;52.480;13.354;2023-09-19T12:13:48;22.40;71.50
5027;DHT22;2532;52.480;13.354;2023-09-19T12:16:17;22.30;70.90
5027;DHT22;2532;52.480;13.354;2023-09-19T12:18:48;22.30;71.30
5027;DHT22;2532;52.480;13.354;2023-09-19T12:21:27;22.30;71.00
5027;DHT22;2532;52.480;13.354;2023-09-19T12:24:06;22.30;70.50
5027;DHT22;2532;52.480;13.354;2023-09-19T12:26:40;22.30;69.40
5027;DHT22;2532;52.480;13.354;2023-09-19T12:29:20;22.20;68.30
5027;DHT22;2532;52.480;13.354;2023-09-19T12:31:48;22.20;68.40
5027;DHT22;2532;52.480;13.354;2023-09-19T12:34:20;22.20;69.00
5027;DHT22;2532;52.480;13.354;2023-09-19T12:36:49;22.30;68.50
5027;DHT22;2532;52.480;13.354;2023-09-19T12:39:30;22.30;69.10
5027;DHT22;2532;52.480;13.354;2023-09-19T12:41:58;22.40;68.90
5027;DHT22;2532;52.480;13.354;2023-09-19T12:44:25;22.40;69.00
5027;DHT22;2532;52.480;13.354;2023-09-19T12:46:51;22.50;69.00
5027;DHT22;2532;52.480;13.354;2023-09-19T12:49:20;22.50;69.40
5027;DHT22;2532;52.480;13.354;2023-09-19T12:51:55;22.50;69.20
5027;DHT22;2532;52.480;13.354;2023-09-19T12:54:22;22.40;69.10
5027;DHT22;2532;52.480;13.354;2023-09-19T12:56:51;22.50;69.30
5027;DHT22;2532;52.480;13.354;2023-09-19T12:59:29;22.50;69.50
5027;DHT22;2532;52.480;13.354;2023-09-19T13:02:04;22.50;69.20
5027;DHT22;2532;52.480;13.354;2023-09-19T13:04:33;22.50;69.40
5027;DHT22;2532;52.480;13.354;2023-09-19T13:07:07;22.50;69.80
5027;DHT22;2532;52.480;13.354;2023-09-19T13:09:34;22.50;69.90
5027;DHT22;2532;52.480;13.354;2023-09-19T13:12:01;22.40;70.00
5027;DHT22;2532;52.480;13.354;2023-09-19T13:14:30;22.40;69.10
5027;DHT22;2532;52.480;13.354;2023-09-19T13:17:00;22.40;69.10
5027;DHT22;2532;52.480;13.354;2023-09-19T13:19:39;22.40;69.20
5027;DHT22;2532;52.480;13.354;2023-09-19T13:22:39;22.50;69.20
5027;DHT22;2532;52.480;13.354;2023-09-19T13:25:08;22.50;68.70
5027;DHT22;2532;52.480;13.354;2023-09-19T13:27:43;22.50;69.00
5027;DHT22;2532;52.480;13.354;2023-09-19T13:30:11;22.50;69.00
5027;DHT22;2532;52.480;13.354;2023-09-19T13:32:39;22.60;69.70
5027;DHT22;2532;52.480;13.354;2023-09-19T13:35:07;22.60;69.50
5027;DHT22;2532;52.480;13.354;2023-09-19T13:37:35;22.60;69.30
5027;DHT22;2532;52.480;13.354;2023-09-19T13:40:08;22.60;69.40
5027;DHT22;2532;52.480;13.354;2023-09-19T13:42:35;22.60;69.50
5027;DHT22;2532;52.480;13.354;2023-09-19T13:45:03;22.60;69.40
5027;DHT22;2532;52.480;13.354;2023-09-19T13:47:31;22.70;69.20
5027;DHT22;2532;52.480;13.354;2023-09-19T13:49:58;22.70;69.70
5027;DHT22;2532;52.480;13.354;2023-09-19T13:52:26;22.70;69.80
5027;DHT22;2532;52.480;13.354;2023-09-19T13:54:55;22.80;68.60
5027;DHT22;2532;52.480;13.354;2023-09-19T13:57:23;22.80;68.50
5027;DHT22;2532;52.480;13.354;2023-09-19T13:59:51;22.80;69.30
5027;DHT22;2532;52.480;13.354;2023-09-19T14:02:20;22.80;69.20
5027;DHT22;2532;52.480;13.354;2023-09-19T14:04:48;22.80;68.50
5027;DHT22;2532;52.480;13.354;2023-09-19T14:07:15;22.80;68.60
5027;DHT22;2532;52.480;13.354;2023-09-19T14:09:43;22.70;68.40
5027;DHT22;2532;52.480;13.354;2023-09-19T14:12:14;22.80;68.50
5027;DHT22;2532;52.480;13.354;2023-09-19T14:14:42;22.80;68.80
5027;DHT22;2532;52.480;13.354;2023-09-19T14:17:10;22.80;69.00
5027;DHT22;2532;52.480;13.354;2023-09-19T14:19:41;22.80;68.80
5027;DHT22;2532;52.480;13.354;2023-09-19T14:22:09;22.90;68.60
5027;DHT22;2532;52.480;13.354;2023-09-19T14:24:36;22.90;68.70
5027;DHT22;2532;52.480;13.354;2023-09-19T14:27:04;22.90;68.50
5027;DHT22;2532;52.480;13.354;2023-09-19T14:29:32;22.80;68.40
5027;DHT22;2532;52.480;13.354;2023-09-19T14:32:00;22.80;68.30
5027;DHT22;2532;52.480;13.354;2023-09-19T14:34:27;22.80;68.50
5027;DHT22;2532;52.480;13.354;2023-09-19T14:36:54;22.80;68.60
5027;DHT22;2532;52.480;13.354;2023-09-19T14:39:22;22.90;68.80
5027;DHT22;2532;52.480;13.354;2023-09-19T14:41:49;22.90;68.50
5027;DHT22;2532;52.480;13.354;2023-09-19T14:44:17;22.80;68.70
5027;DHT22;2532;52.480;13.354;2023-09-19T14:46:44;22.80;68.50
5027;DHT22;2532;52.480;13.354;2023-09-19T14:49:12;22.80;68.10
5027;DHT22;2532;52.480;13.354;2023-09-19T14:51:42;22.80;68.50
5027;DHT22;2532;52.480;13.354;2023-09-19T14:54:09;22.80;68.20
5027;DHT22;2532;52.480;13.354;2023-09-19T14:56:36;22.80;68.40
5027;DHT22;2532;52.480;13.354;2023-09-19T14:59:03;22.80;68.50
5027;DHT22;2532;52.480;13.354;2023-09-19T15:01:30;22.90;68.70
5027;DHT22;2532;52.480;13.354;2023-09-19T15:03:57;22.90;68.20
5027;DHT22;2532;52.480;13.354;2023-09-19T15:06:27;22.90;67.70
5027;DHT22;2532;52.480;13.354;2023-09-19T15:08:54;22.90;67.60
5027;DHT22;2532;52.480;13.354;2023-09-19T15:11:23;22.90;67.40
5027;DHT22;2532;52.480;13.354;2023-09-19T15:13:52;22.90;67.80
5027;DHT22;2532;52.480;13.354;2023-09-19T15:16:19;22.90;67.70
5027;DHT22;2532;52.480;13.354;2023-09-19T15:18:46;22.90;68.00
5027;DHT22;2532;52.480;13.354;2023-09-19T15:21:14;23.00;67.90
5027;DHT22;2532;52.480;13.354;2023-09-19T15:23:43;23.00;67.90
5027;DHT22;2532;52.480;13.354;2023-09-19T15:26:14;23.00;68.30
5027;DHT22;2532;52.480;13.354;2023-09-19T15:28:43;23.10;67.80
5027;DHT22;2532;52.480;13.354;2023-09-19T15:31:11;23.10;68.10
5027;DHT22;2532;52.480;13.354;2023-09-19T15:33:38;23.10;67.50
5027;DHT22;2532;52.480;13.354;2023-09-19T15:36:06;23.10;67.50
5027;DHT22;2532;52.480;13.354;2023-09-19T15:38:57;23.10;67.30
5027;DHT22;2532;52.480;13.354;2023-09-19T15:41:25;23.00;68.30
5027;DHT22;2532;52.480;13.354;2023-09-19T15:43:53;22.90;67.80
5027;DHT22;2532;52.480;13.354;2023-09-19T15:46:20;22.90;68.30
5027;DHT22;2532;52.480;13.354;2023-09-19T15:48:47;22.80;68.70
5027;DHT22;2532;52.480;13.354;2023-09-19T15:51:14;22.80;68.60
5027;DHT22;2532;52.480;13.354;2023-09-19T15:53:43;22.80;69.10
5027;DHT22;2532;52.480;13.354;2023-09-19T15:56:12;22.80;69.00
5027;DHT22;2532;52.480;13.354;2023-09-19T15:58:40;22.80;68.80
5027;DHT22;2532;52.480;13.354;2023-09-19T16:01:07;22.80;69.30
5027;DHT22;2532;52.480;13.354;2023-09-19T16:03:35;22.90;69.20
5027;DHT22;2532;52.480;13.354;2023-09-19T16:06:08;22.80;68.80
5027;DHT22;2532;52.480;13.354;2023-09-19T16:08:35;22.80;68.90
5027;DHT22;2532;52.480;13.354;2023-09-19T16:11:03;22.80;69.10
5027;DHT22;2532;52.480;13.354;2023-09-19T16:13:31;22.80;68.90
5027;DHT22;2532;52.480;13.354;2023-09-19T16:15:58;22.80;68.80
5027;DHT22;2532;52.480;13.354;2023-09-19T16:18:27;22.70;69.10
5027;DHT22;2532;52.480;13.354;2023-09-19T16:21:01;22.60;68.80
5027;DHT22;2532;52.480;13.354;2023-09-19T16:23:28;22.60;68.70
5027;DHT22;2532;52.480;13.354;2023-09-19T16:26:01;22.60;69.10
5027;DHT22;2532;52.480;13.354;2023-09-19T16:28:31;22.50;69.10
5027;DHT22;2532;52.480;13.354;2023-09-19T16:31:00;22.50;69.20
5027;DHT22;2532;52.480;13.354;2023-09-19T16:33:27;22.50;68.90
5027;DHT22;2532;52.480;13.354;2023-09-19T16:35:54;22.50;69.30
5027;DHT22;2532;52.480;13.354;2023-09-19T16:38:22;22.50;69.00
5027;DHT22;2532;52.480;13.354;2023-09-19T16:40:53;22.40;69.60
5027;DHT22;2532;52.480;13.354;2023-09-19T16:43:20;22.40;68.70
5027;DHT22;2532;52.480;13.354;2023-09-19T16:45:56;22.40;68.90
5027;DHT22;2532;52.480;13.354;2023-09-19T16:51:45;22.30;69.00
5027;DHT22;2532;52.480;13.354;2023-09-19T16:54:12;22.30;69.20
5027;DHT22;2532;52.480;13.354;2023-09-19T16:56:40;22.20;69.30
5027;DHT22;2532;52.480;13.354;2023-09-19T16:59:07;22.10;69.20
5027;DHT22;2532;52.480;13.354;2023-09-19T17:01:37;22.10;68.80
5027;DHT22;2532;52.480;13.354;2023-09-19T17:04:05;22.10;68.90
5027;DHT22;2532;52.480;13.354;2023-09-19T17:06:33;22.10;69.00
5027;DHT22;2532;52.480;13.354;2023-09-19T17:09:02;22.00;69.20
5027;DHT22;2532;52.480;13.354;2023-09-19T17:11:31;22.00;68.50
5027;DHT22;2532;52.480;13.354;2023-09-19T17:13:59;21.90;68.80
5027;DHT22;2532;52.480;13.354;2023-09-19T17:16:27;21.90;69.10
5027;DHT22;2532;52.480;13.354;2023-09-19T17:18:57;21.90;69.40
5027;DHT22;2532;52.480;13.354;2023-09-19T17:21:25;21.80;69.10
5027;DHT22;2532;52.480;13.354;2023-09-19T17:23:52;21.80;69.40
5027;DHT22;2532;52.480;13.354;2023-09-19T17:26:20;21.80;69.00
5027;DHT22;2532;52.480;13.354;2023-09-19T17:28:48;21.70;69.20
5027;DHT22;2532;52.480;13.354;2023-09-19T17:31:19;21.70;69.00
5027;DHT22;2532;52.480;13.354;2023-09-19T17:33:48;21.70;69.20
5027;DHT22;2532;52.480;13.354;2023-09-19T17:36:18;21.60;69.30
5027;DHT22;2532;52.480;13.354;2023-09-19T17:38:47;21.60;69.50
5027;DHT22;2532;52.480;13.354;2023-09-19T17:41:18;21.60;69.60
5027;DHT22;2532;52.480;13.354;2023-09-19T17:43:53;21.60;69.60
5027;DHT22;2532;52.480;13.354;2023-09-19T17:46:20;21.50;69.60
5027;DHT22;2532;52.480;13.354;2023-09-19T17:48:52;21.50;69.90
5027;DHT22;2532;52.480;13.354;2023-09-19T17:51:22;21.50;70.70
5027;DHT22;2532;52.480;13.354;2023-09-19T17:53:49;21.50;70.30
5027;DHT22;2532;52.480;13.354;2023-09-19T17:56:17;21.50;70.50
5027;DHT22;2532;52.480;13.354;2023-09-19T17:58:46;21.40;70.60
5027;DHT22;2532;52.480;13.354;2023-09-19T18:01:19;21.40;70.80
5027;DHT22;2532;52.480;13.354;2023-09-19T18:03:48;21.40;70.50
5027;DHT22;2532;52.480;13.354;2023-09-19T18:06:17;21.30;70.60
5027;DHT22;2532;52.480;13.354;2023-09-19T18:08:47;21.30;70.60
5027;DHT22;2532;52.480;13.354;2023-09-19T18:11:15;21.30;70.40
5027;DHT22;2532;52.480;13.354;2023-09-19T18:13:44;21.20;70.60
5027;DHT22;2532;52.480;13.354;2023-09-19T18:16:11;21.20;70.60
5027;DHT22;2532;52.480;13.354;2023-09-19T18:18:39;21.20;70.60
5027;DHT22;2532;52.480;13.354;2023-09-19T18:21:06;21.00;70.50
5027;DHT22;2532;52.480;13.354;2023-09-19T18:23:35;21.10;71.00
5027;DHT22;2532;52.480;13.354;2023-09-19T18:26:03;21.10;71.30
5027;DHT22;2532;52.480;13.354;2023-09-19T18:28:31;21.00;71.20
5027;DHT22;2532;52.480;13.354;2023-09-19T18:30:58;21.10;71.40
5027;DHT22;2532;52.480;13.354;2023-09-19T18:33:28;21.00;71.30
5027;DHT22;2532;52.480;13.354;2023-09-19T18:36:00;21.00;71.50
5027;DHT22;2532;52.480;13.354;2023-09-19T18:38:28;20.90;71.60
5027;DHT22;2532;52.480;13.354;2023-09-19T18:40:55;20.90;71.60
5027;DHT22;2532;52.480;13.354;2023-09-19T18:43:24;20.90;71.80
5027;DHT22;2532;52.480;13.354;2023-09-19T18:45:57;20.80;71.80
5027;DHT22;2532;52.480;13.354;2023-09-19T18:48:25;20.80;72.00
5027;DHT22;2532;52.480;13.354;2023-09-19T18:51:04;20.80;72.00
5027;DHT22;2532;52.480;13.354;2023-09-19T18:53:34;20.80;72.20
5027;DHT22;2532;52.480;13.354;2023-09-19T18:56:05;20.60;72.20
5027;DHT22;2532;52.480;13.354;2023-09-19T18:58:34;20.70;72.50
5027;DHT22;2532;52.480;13.354;2023-09-19T19:01:02;20.70;72.60
5027;DHT22;2532;52.480;13.354;2023-09-19T19:03:30;20.60;72.60
5027;DHT22;2532;52.480;13.354;2023-09-19T19:05:57;20.60;72.80
5027;DHT22;2532;52.480;13.354;2023-09-19T19:08:24;20.60;73.00
5027;DHT22;2532;52.480;13.354;2023-09-19T19:10:52;20.50;73.00
5027;DHT22;2532;52.480;13.354;2023-09-19T19:13:20;20.50;73.10
5027;DHT22;2532;52.480;13.354;2023-09-19T19:15:50;20.50;73.30
5027;DHT22;2532;52.480;13.354;2023-09-19T19:18:20;20.40;73.30
5027;DHT22;2532;52.480;13.354;2023-09-19T19:20:47;20.40;73.50
5027;DHT22;2532;52.480;13.354;2023-09-19T19:23:14;20.40;73.40
5027;DHT22;2532;52.480;13.354;2023-09-19T19:25:47;20.40;73.60
5027;DHT22;2532;52.480;13.354;2023-09-19T19:28:19;20.30;73.60
5027;DHT22;2532;52.480;13.354;2023-09-19T19:31:00;20.30;73.80
5027;DHT22;2532;52.480;13.354;2023-09-19T19:33:38;20.30;73.90
5027;DHT22;2532;52.480;13.354;2023-09-19T19:36:06;20.30;74.20
5027;DHT22;2532;52.480;13.354;2023-09-19T19:38:38;20.30;74.20
5027;DHT22;2532;52.480;13.354;2023-09-19T19:41:05;20.30;74.20
5027;DHT22;2532;52.480;13.354;2023-09-19T19:43:33;20.20;75.00
5027;DHT22;2532;52.480;13.354;2023-09-19T19:46:05;20.20;74.40
5027;DHT22;2532;52.480;13.354;2023-09-19T19:48:36;20.20;74.60
5027;DHT22;2532;52.480;13.354;2023-09-19T19:51:07;20.10;74.70
5027;DHT22;2532;52.480;13.354;2023-09-19T19:53:35;20.10;74.80
5027;DHT22;2532;52.480;13.354;2023-09-19T19:56:03;20.10;75.10
5027;DHT22;2532;52.480;13.354;2023-09-19T19:58:31;20.10;75.20
5027;DHT22;2532;52.480;13.354;2023-09-19T20:00:58;20.10;75.20
5027;DHT22;2532;52.480;13.354;2023-09-19T20:03:27;20.00;75.10
5027;DHT22;2532;52.480;13.354;2023-09-19T20:05:54;20.00;75.40
5027;DHT22;2532;52.480;13.354;2023-09-19T20:08:21;20.00;75.50
5027;DHT22;2532;52.480;13.354;2023-09-19T20:10:48;20.00;75.70
5027;DHT22;2532;52.480;13.354;2023-09-19T20:13:19;20.00;75.70
5027;DHT22;2532;52.480;13.354;2023-09-19T20:15:53;20.00;75.90